sensor_id;sensor_type;location;lat;lon;timestamp;pressure;altitude;pressure_sealevel;temperature;humidity
73242;BME280;65659;49.234;-2.094;2023-07-20T00:01:36;100707.34;;;18.59;56.25
73242;BME280;65659;49.234;-2.094;2023-07-20T00:04:02;100706.11;;;18.79;56.34
73242;BME280;65659;49.234;-2.094;2023-07-20T00:06:28;100706.72;;;18.80;56.43
73242;BME280;65659;49.234;-2.094;2023-07-20T00:08:54;100703.71;;;18.67;56.69
73242;BME280;65659;49.234;-2.094;2023-07-20T00:11:20;100700.62;;;18.76;56.51
73242;BME280;65659;49.234;-2.094;2023-07-20T00:13:45;100700.65;;;18.72;56.53
73242;BME280;65659;49.234;-2.094;2023-07-20T00:16:11;100694.69;;;18.77;56.47
73242;BME280;65659;49.234;-2.094;2023-07-20T00:18:37;100703.60;;;18.73;56.51
73242;BME280;65659;49.234;-2.094;2023-07-20T00:21:02;100698.91;;;18.79;56.46
73242;BME280;65659;49.234;-2.094;2023-07-20T00:23:28;100700.90;;;18.79;56.53
73242;BME280;65659;49.234;-2.094;2023-07-20T00:25:54;100699.20;;;18.73;56.60
73242;BME280;65659;49.234;-2.094;2023-07-20T00:28:20;100698.39;;;18.70;56.75
73242;BME280;65659;49.234;-2.094;2023-07-20T00:30:45;100695.06;;;18.70;56.71
73242;BME280;65659;49.234;-2.094;2023-07-20T00:33:12;100695.40;;;18.73;56.65
73242;BME280;65659;49.234;-2.094;2023-07-20T00:35:37;100696.08;;;18.79;56.55
73242;BME280;65659;49.234;-2.094;2023-07-20T00:38:03;100695.71;;;18.69;56.69
73242;BME280;65659;49.234;-2.094;2023-07-20T00:40:28;100692.11;;;18.69;56.70
73242;BME280;65659;49.234;-2.094;2023-07-20T00:42:54;100691.38;;;19.12;56.81
73242;BME280;65659;49.234;-2.094;2023-07-20T00:45:20;100687.73;;;18.70;56.65
73242;BME280;65659;49.234;-2.094;2023-07-20T00:47:46;100682.22;;;18.46;56.63
73242;BME280;65659;49.234;-2.094;2023-07-20T00:50:11;100678.34;;;18.68;56.68
73242;BME280;65659;49.234;-2.094;2023-07-20T00:52:37;100675.14;;;18.43;56.71
73242;BME280;65659;49.234;-2.094;2023-07-20T00:55:03;100673.03;;;18.42;56.68
73242;BME280;65659;49.234;-2.094;2023-07-20T00:57:28;100672.46;;;18.65;56.70
73242;BME280;65659;49.234;-2.094;2023-07-20T00:59:54;100673.07;;;18.56;56.83
73242;BME280;65659;49.234;-2.094;2023-07-20T01:02:19;100670.31;;;18.60;56.73
73242;BME280;65659;49.234;-2.094;2023-07-20T01:04:45;100671.42;;;18.62;56.64
73242;BME280;65659;49.234;-2.094;2023-07-20T01:07:14;100665.13;;;18.55;56.74
73242;BME280;65659;49.234;-2.094;2023-07-20T01:09:41;100664.78;;;18.56;56.74
73242;BME280;65659;49.234;-2.094;2023-07-20T01:12:07;100663.45;;;18.53;56.75
73242;BME280;65659;49.234;-2.094;2023-07-20T01:14:28;100665.39;;;18.52;56.71
73242;BME280;65659;49.234;-2.094;2023-07-20T01:16:54;100668.84;;;18.48;56.75
73242;BME280;65659;49.234;-2.094;2023-07-20T01:19:20;100662.55;;;18.51;56.64
73242;BME280;65659;49.234;-2.094;2023-07-20T01:21:50;100665.49;;;18.45;56.70
73242;BME280;65659;49.234;-2.094;2023-07-20T01:24:27;100659.76;;;18.42;56.73
73242;BME280;65659;49.234;-2.094;2023-07-20T01:26:53;100658.58;;;18.43;56.66
73242;BME280;65659;49.234;-2.094;2023-07-20T01:29:11;100659.22;;;18.43;56.63
73242;BME280;65659;49.234;-2.094;2023-07-20T01:31:30;100660.26;;;18.41;56.64
73242;BME280;65659;49.234;-2.094;2023-07-20T01:34:02;100662.58;;;18.38;56.68
73242;BME280;65659;49.234;-2.094;2023-07-20T01:36:22;100661.76;;;18.34;56.73
73242;BME280;65659;49.234;-2.094;2023-07-20T01:38:47;100658.58;;;18.33;56.69
73242;BME280;65659;49.234;-2.094;2023-07-20T01:41:12;100654.51;;;18.29;56.73
73242;BME280;65659;49.234;-2.094;2023-07-20T01:43:37;100652.16;;;18.27;56.71
73242;BME280;65659;49.234;-2.094;2023-07-20T01:46:03;100649.07;;;18.50;56.73
73242;BME280;65659;49.234;-2.094;2023-07-20T01:48:29;100648.05;;;18.46;56.82
73242;BME280;65659;49.234;-2.094;2023-07-20T01:50:54;100648.14;;;18.26;56.81
73242;BME280;65659;49.234;-2.094;2023-07-20T01:53:21;100646.68;;;18.67;56.91
73242;BME280;65659;49.234;-2.094;2023-07-20T01:55:46;100647.68;;;18.19;56.96
73242;BME280;65659;49.234;-2.094;2023-07-20T01:58:11;100645.24;;;18.21;56.91
73242;BME280;65659;49.234;-2.094;2023-07-20T02:00:37;100648.49;;;18.21;56.87
73242;BME280;65659;49.234;-2.094;2023-07-20T02:03:03;100648.35;;;18.18;56.92
73242;BME280;65659;49.234;-2.094;2023-07-20T02:05:29;100641.92;;;18.20;56.84
73242;BME280;65659;49.234;-2.094;2023-07-20T02:07:55;100639.99;;;18.18;56.84
73242;BME280;65659;49.234;-2.094;2023-07-20T02:10:20;100636.02;;;18.19;56.81
73242;BME280;65659;49.234;-2.094;2023-07-20T02:12:46;100636.33;;;18.37;56.95
73242;BME280;65659;49.234;-2.094;2023-07-20T02:15:11;100636.04;;;18.59;56.99
73242;BME280;65659;49.234;-2.094;2023-07-20T02:17:37;100635.78;;;18.36;57.01
73242;BME280;65659;49.234;-2.094;2023-07-20T02:20:04;100631.82;;;18.15;56.96
73242;BME280;65659;49.234;-2.094;2023-07-20T02:22:29;100630.99;;;18.38;56.99
73242;BME280;65659;49.234;-2.094;2023-07-20T02:24:55;100632.20;;;18.15;57.00
73242;BME280;65659;49.234;-2.094;2023-07-20T02:27:21;100631.94;;;18.17;57.01
73242;BME280;65659;49.234;-2.094;2023-07-20T02:29:46;100631.48;;;18.23;56.95
73242;BME280;65659;49.234;-2.094;2023-07-20T02:32:12;100628.26;;;18.24;56.94
73242;BME280;65659;49.234;-2.094;2023-07-20T02:34:38;100625.08;;;18.33;56.84
73242;BME280;65659;49.234;-2.094;2023-07-20T02:37:04;100622.65;;;18.30;56.88
73242;BME280;65659;49.234;-2.094;2023-07-20T02:39:29;100622.29;;;18.33;56.91
73242;BME280;65659;49.234;-2.094;2023-07-20T02:41:55;100619.98;;;18.36;56.86
73242;BME280;65659;49.234;-2.094;2023-07-20T02:44:21;100615.64;;;18.34;56.86
73242;BME280;65659;49.234;-2.094;2023-07-20T02:46:47;100618.49;;;18.33;56.85
73242;BME280;65659;49.234;-2.094;2023-07-20T02:49:12;100618.32;;;18.35;56.79
73242;BME280;65659;49.234;-2.094;2023-07-20T02:51:38;100621.58;;;18.60;56.71
73242;BME280;65659;49.234;-2.094;2023-07-20T02:54:04;100622.59;;;18.35;56.67
73242;BME280;65659;49.234;-2.094;2023-07-20T02:56:30;100620.83;;;18.60;56.51
73242;BME280;65659;49.234;-2.094;2023-07-20T02:58:56;100623.20;;;18.37;56.32
73242;BME280;65659;49.234;-2.094;2023-07-20T03:01:21;100620.98;;;18.35;56.15
73242;BME280;65659;49.234;-2.094;2023-07-20T03:03:47;100621.64;;;18.81;55.98
73242;BME280;65659;49.234;-2.094;2023-07-20T03:06:13;100621.33;;;18.27;55.83
73242;BME280;65659;49.234;-2.094;2023-07-20T03:08:39;100623.63;;;18.22;55.67
73242;BME280;65659;49.234;-2.094;2023-07-20T03:11:05;100623.64;;;18.64;55.51
73242;BME280;65659;49.234;-2.094;2023-07-20T03:13:31;100621.01;;;18.14;55.41
73242;BME280;65659;49.234;-2.094;2023-07-20T03:15:56;100622.20;;;18.11;55.36
73242;BME280;65659;49.234;-2.094;2023-07-20T03:18:22;100621.74;;;18.12;55.18
73242;BME280;65659;49.234;-2.094;2023-07-20T03:20:48;100620.54;;;18.09;55.11
73242;BME280;65659;49.234;-2.094;2023-07-20T03:23:14;100619.34;;;18.53;55.08
73242;BME280;65659;49.234;-2.094;2023-07-20T03:25:39;100620.32;;;18.26;55.05
73242;BME280;65659;49.234;-2.094;2023-07-20T03:28:05;100620.81;;;18.00;54.96
73242;BME280;65659;49.234;-2.094;2023-07-20T03:30:31;100620.60;;;17.97;54.85
73242;BME280;65659;49.234;-2.094;2023-07-20T03:32:57;100622.25;;;17.92;54.80
73242;BME280;65659;49.234;-2.094;2023-07-20T03:35:23;100620.13;;;17.89;54.73
73242;BME280;65659;49.234;-2.094;2023-07-20T03:37:49;100623.36;;;18.07;54.74
73242;BME280;65659;49.234;-2.094;2023-07-20T03:40:14;100623.54;;;17.78;54.79
73242;BME280;65659;49.234;-2.094;2023-07-20T03:42:40;100623.28;;;18.01;54.75
73242;BME280;65659;49.234;-2.094;2023-07-20T03:45:07;100625.23;;;18.20;54.77
73242;BME280;65659;49.234;-2.094;2023-07-20T03:47:32;100628.93;;;18.18;54.80
73242;BME280;65659;49.234;-2.094;2023-07-20T03:49:58;100628.86;;;17.93;54.86
73242;BME280;65659;49.234;-2.094;2023-07-20T03:52:23;100630.55;;;17.90;54.88
73242;BME280;65659;49.234;-2.094;2023-07-20T03:54:50;100631.34;;;17.90;54.96
73242;BME280;65659;49.234;-2.094;2023-07-20T03:57:15;100631.41;;;18.11;55.02
73242;BME280;65659;49.234;-2.094;2023-07-20T03:59:45;100628.77;;;17.63;55.04
73242;BME280;65659;49.234;-2.094;2023-07-20T04:02:06;100628.35;;;17.88;55.11
73242;BME280;65659;49.234;-2.094;2023-07-20T04:04:32;100628.19;;;18.09;55.14
73242;BME280;65659;49.234;-2.094;2023-07-20T04:06:57;100626.38;;;17.63;55.19
73242;BME280;65659;49.234;-2.094;2023-07-20T04:09:22;100622.19;;;17.64;55.27
73242;BME280;65659;49.234;-2.094;2023-07-20T04:11:48;100622.64;;;18.10;55.36
73242;BME280;65659;49.234;-2.094;2023-07-20T04:14:14;100621.06;;;18.07;55.40
73242;BME280;65659;49.234;-2.094;2023-07-20T04:16:39;100624.79;;;18.06;55.44
73242;BME280;65659;49.234;-2.094;2023-07-20T04:19:05;100625.44;;;18.06;55.46
73242;BME280;65659;49.234;-2.094;2023-07-20T04:21:31;100624.50;;;17.86;55.45
73242;BME280;65659;49.234;-2.094;2023-07-20T04:23:56;100620.86;;;18.11;55.45
73242;BME280;65659;49.234;-2.094;2023-07-20T04:26:22;100618.35;;;18.11;55.51
73242;BME280;65659;49.234;-2.094;2023-07-20T04:28:48;100619.18;;;17.67;55.55
73242;BME280;65659;49.234;-2.094;2023-07-20T04:31:15;100618.12;;;18.17;55.54
73242;BME280;65659;49.234;-2.094;2023-07-20T04:33:40;100620.25;;;17.93;55.58
73242;BME280;65659;49.234;-2.094;2023-07-20T04:36:05;100620.87;;;17.70;55.62
73242;BME280;65659;49.234;-2.094;2023-07-20T04:38:31;100620.34;;;17.99;55.56
73242;BME280;65659;49.234;-2.094;2023-07-20T04:40:56;100622.91;;;18.27;55.51
73242;BME280;65659;49.234;-2.094;2023-07-20T04:43:22;100624.60;;;18.27;55.50
73242;BME280;65659;49.234;-2.094;2023-07-20T04:45:48;100623.98;;;17.83;55.43
73242;BME280;65659;49.234;-2.094;2023-07-20T04:48:15;100621.13;;;18.11;55.39
73242;BME280;65659;49.234;-2.094;2023-07-20T04:50:41;100619.41;;;17.92;55.35
73242;BME280;65659;49.234;-2.094;2023-07-20T04:53:05;100624.48;;;17.98;55.30
73242;BME280;65659;49.234;-2.094;2023-07-20T04:55:31;100622.02;;;18.54;55.25
73242;BME280;65659;49.234;-2.094;2023-07-20T04:57:56;100619.84;;;18.18;55.13
73242;BME280;65659;49.234;-2.094;2023-07-20T05:00:22;100620.93;;;18.30;55.02
73242;BME280;65659;49.234;-2.094;2023-07-20T05:02:48;100622.45;;;18.40;54.89
73242;BME280;65659;49.234;-2.094;2023-07-20T05:05:14;100619.44;;;18.53;54.75
73242;BME280;65659;49.234;-2.094;2023-07-20T05:07:39;100617.89;;;18.64;54.64
73242;BME280;65659;49.234;-2.094;2023-07-20T05:10:06;100618.43;;;18.75;54.55
73242;BME280;65659;49.234;-2.094;2023-07-20T05:12:31;100619.03;;;18.91;54.43
73242;BME280;65659;49.234;-2.094;2023-07-20T05:14:56;100618.19;;;19.01;54.36
73242;BME280;65659;49.234;-2.094;2023-07-20T05:17:22;100617.03;;;19.12;54.23
73242;BME280;65659;49.234;-2.094;2023-07-20T05:19:49;100612.91;;;19.20;54.16
73242;BME280;65659;49.234;-2.094;2023-07-20T05:22:14;100611.96;;;19.29;54.10
73242;BME280;65659;49.234;-2.094;2023-07-20T05:24:40;100612.21;;;19.09;54.05
73242;BME280;65659;49.234;-2.094;2023-07-20T05:27:06;100614.68;;;19.18;53.96
73242;BME280;65659;49.234;-2.094;2023-07-20T05:29:31;100616.32;;;19.24;53.86
73242;BME280;65659;49.234;-2.094;2023-07-20T05:31:57;100615.06;;;19.53;53.78
73242;BME280;65659;49.234;-2.094;2023-07-20T05:34:23;100614.33;;;19.33;53.76
73242;BME280;65659;49.234;-2.094;2023-07-20T05:36:49;100613.76;;;19.40;53.65
73242;BME280;65659;49.234;-2.094;2023-07-20T05:39:14;100615.16;;;19.25;53.56
73242;BME280;65659;49.234;-2.094;2023-07-20T05:41:40;100614.58;;;19.30;53.45
73242;BME280;65659;49.234;-2.094;2023-07-20T05:44:05;100614.92;;;19.31;53.44
73242;BME280;65659;49.234;-2.094;2023-07-20T05:46:31;100614.31;;;19.58;53.33
73242;BME280;65659;49.234;-2.094;2023-07-20T05:48:57;100613.00;;;19.57;53.27
73242;BME280;65659;49.234;-2.094;2023-07-20T05:51:23;100612.06;;;19.58;53.22
73242;BME280;65659;49.234;-2.094;2023-07-20T05:53:49;100609.89;;;19.63;53.08
73242;BME280;65659;49.234;-2.094;2023-07-20T05:56:14;100610.46;;;19.42;53.04
73242;BME280;65659;49.234;-2.094;2023-07-20T05:58:40;100608.52;;;19.44;52.96
73242;BME280;65659;49.234;-2.094;2023-07-20T06:01:06;100605.91;;;19.47;52.85
73242;BME280;65659;49.234;-2.094;2023-07-20T06:03:32;100604.40;;;19.71;52.77
73242;BME280;65659;49.234;-2.094;2023-07-20T06:05:59;100606.89;;;19.50;52.69
73242;BME280;65659;49.234;-2.094;2023-07-20T06:08:23;100608.34;;;19.31;52.61
73242;BME280;65659;49.234;-2.094;2023-07-20T06:10:50;100606.46;;;19.61;52.52
73242;BME280;65659;49.234;-2.094;2023-07-20T06:13:15;100606.73;;;19.21;52.30
73242;BME280;65659;49.234;-2.094;2023-07-20T06:15:41;100607.65;;;19.32;52.11
73242;BME280;65659;49.234;-2.094;2023-07-20T06:18:06;100606.45;;;19.96;51.86
73242;BME280;65659;49.234;-2.094;2023-07-20T06:20:32;100600.28;;;19.58;51.76
73242;BME280;65659;49.234;-2.094;2023-07-20T06:22:58;100597.45;;;20.14;51.70
73242;BME280;65659;49.234;-2.094;2023-07-20T06:25:24;100596.66;;;19.72;51.68
73242;BME280;65659;49.234;-2.094;2023-07-20T06:27:50;100597.14;;;19.84;51.52
73242;BME280;65659;49.234;-2.094;2023-07-20T06:30:15;100597.38;;;19.96;51.26
73242;BME280;65659;49.234;-2.094;2023-07-20T06:32:42;100596.87;;;20.05;50.96
73242;BME280;65659;49.234;-2.094;2023-07-20T06:35:07;100596.70;;;19.66;50.77
73242;BME280;65659;49.234;-2.094;2023-07-20T06:37:33;100597.90;;;20.29;50.48
73242;BME280;65659;49.234;-2.094;2023-07-20T06:39:58;100596.82;;;20.05;50.36
73242;BME280;65659;49.234;-2.094;2023-07-20T06:42:24;100595.78;;;20.14;50.22
73242;BME280;65659;49.234;-2.094;2023-07-20T06:44:50;100595.99;;;20.49;50.15
73242;BME280;65659;49.234;-2.094;2023-07-20T06:47:16;100597.29;;;20.32;50.01
73242;BME280;65659;49.234;-2.094;2023-07-20T06:52:08;100602.84;;;20.20;49.65
73242;BME280;65659;49.234;-2.094;2023-07-20T06:54:34;100606.24;;;19.92;49.13
73242;BME280;65659;49.234;-2.094;2023-07-20T06:57:00;100605.04;;;19.87;48.80
73242;BME280;65659;49.234;-2.094;2023-07-20T06:59:26;100604.86;;;20.21;48.21
73242;BME280;65659;49.234;-2.094;2023-07-20T07:01:54;100606.20;;;20.28;47.85
73242;BME280;65659;49.234;-2.094;2023-07-20T07:04:18;100605.58;;;20.60;47.36
73242;BME280;65659;49.234;-2.094;2023-07-20T07:06:44;100604.62;;;20.78;46.93
73242;BME280;65659;49.234;-2.094;2023-07-20T07:09:12;100603.63;;;20.73;46.70
73242;BME280;65659;49.234;-2.094;2023-07-20T07:11:37;100602.47;;;20.71;46.29
73242;BME280;65659;49.234;-2.094;2023-07-20T07:13:59;100601.92;;;21.37;45.90
73242;BME280;65659;49.234;-2.094;2023-07-20T07:16:27;100601.64;;;21.01;45.65
73242;BME280;65659;49.234;-2.094;2023-07-20T07:18:57;100602.20;;;21.03;45.39
73242;BME280;65659;49.234;-2.094;2023-07-20T07:21:17;100607.54;;;21.01;45.26
73242;BME280;65659;49.234;-2.094;2023-07-20T07:23:42;100605.61;;;21.44;44.93
73242;BME280;65659;49.234;-2.094;2023-07-20T07:26:09;100605.23;;;21.25;44.85
73242;BME280;65659;49.234;-2.094;2023-07-20T07:28:43;100605.15;;;21.26;44.41
73242;BME280;65659;49.234;-2.094;2023-07-20T07:31:09;100604.50;;;21.38;44.19
73242;BME280;65659;49.234;-2.094;2023-07-20T07:33:25;100603.41;;;21.65;44.03
73242;BME280;65659;49.234;-2.094;2023-07-20T07:35:54;100602.64;;;21.57;43.70
73242;BME280;65659;49.234;-2.094;2023-07-20T07:38:23;100602.96;;;21.45;43.48
73242;BME280;65659;49.234;-2.094;2023-07-20T07:40:45;100605.80;;;21.65;43.25
73242;BME280;65659;49.234;-2.094;2023-07-20T07:43:17;100610.23;;;21.49;42.88
73242;BME280;65659;49.234;-2.094;2023-07-20T07:45:39;100611.26;;;21.63;42.54
73242;BME280;65659;49.234;-2.094;2023-07-20T07:48:00;100609.37;;;21.85;42.09
73242;BME280;65659;49.234;-2.094;2023-07-20T07:50:30;100611.88;;;21.78;41.82
73242;BME280;65659;49.234;-2.094;2023-07-20T07:52:54;100609.61;;;22.16;41.29
73242;BME280;65659;49.234;-2.094;2023-07-20T07:55:17;100610.18;;;22.04;40.98
73242;BME280;65659;49.234;-2.094;2023-07-20T07:57:43;100609.81;;;21.81;40.76
73242;BME280;65659;49.234;-2.094;2023-07-20T08:00:22;100608.12;;;22.09;40.88
73242;BME280;65659;49.234;-2.094;2023-07-20T08:02:47;100607.40;;;22.56;41.10
73242;BME280;65659;49.234;-2.094;2023-07-20T08:05:08;100609.62;;;22.04;41.10
73242;BME280;65659;49.234;-2.094;2023-07-20T08:07:29;100609.52;;;22.11;40.67
73242;BME280;65659;49.234;-2.094;2023-07-20T08:09:56;100607.02;;;22.23;40.28
73242;BME280;65659;49.234;-2.094;2023-07-20T08:12:33;100604.33;;;22.24;40.41
73242;BME280;65659;49.234;-2.094;2023-07-20T08:14:44;100600.49;;;21.91;40.48
73242;BME280;65659;49.234;-2.094;2023-07-20T08:17:13;100596.64;;;22.39;40.54
73242;BME280;65659;49.234;-2.094;2023-07-20T08:19:39;100594.32;;;21.99;40.34
73242;BME280;65659;49.234;-2.094;2023-07-20T08:22:03;100594.61;;;22.13;39.96
73242;BME280;65659;49.234;-2.094;2023-07-20T08:24:29;100594.95;;;22.79;39.97
73242;BME280;65659;49.234;-2.094;2023-07-20T08:27:09;100594.63;;;21.95;40.01
73242;BME280;65659;49.234;-2.094;2023-07-20T08:29:26;100597.41;;;22.07;40.13
73242;BME280;65659;49.234;-2.094;2023-07-20T08:34:24;100598.66;;;22.56;40.63
73242;BME280;65659;49.234;-2.094;2023-07-20T08:37:00;100598.02;;;22.20;40.75
73242;BME280;65659;49.234;-2.094;2023-07-20T08:39:07;100597.74;;;21.49;40.82
73242;BME280;65659;49.234;-2.094;2023-07-20T08:41:46;100598.04;;;22.30;40.52
73242;BME280;65659;49.234;-2.094;2023-07-20T08:44:04;100599.82;;;22.47;40.80
73242;BME280;65659;49.234;-2.094;2023-07-20T08:46:30;100601.77;;;22.33;41.03
73242;BME280;65659;49.234;-2.094;2023-07-20T08:51:18;100600.20;;;22.85;40.44
73242;BME280;65659;49.234;-2.094;2023-07-20T08:53:52;100602.59;;;21.82;40.72
73242;BME280;65659;49.234;-2.094;2023-07-20T08:56:06;100605.58;;;22.06;40.59
73242;BME280;65659;49.234;-2.094;2023-07-20T08:58:34;100603.94;;;22.33;40.21
73242;BME280;65659;49.234;-2.094;2023-07-20T09:01:00;100609.58;;;22.56;40.02
73242;BME280;65659;49.234;-2.094;2023-07-20T09:03:34;100610.42;;;22.23;39.61
73242;BME280;65659;49.234;-2.094;2023-07-20T09:06:11;100614.51;;;23.33;39.46
73242;BME280;65659;49.234;-2.094;2023-07-20T09:10:43;100612.66;;;22.12;39.98
73242;BME280;65659;49.234;-2.094;2023-07-20T09:18:01;100618.05;;;22.29;39.24
73242;BME280;65659;49.234;-2.094;2023-07-20T09:22:47;100617.42;;;22.22;39.35
73242;BME280;65659;49.234;-2.094;2023-07-20T09:25:16;100617.01;;;22.37;39.39
73242;BME280;65659;49.234;-2.094;2023-07-20T09:27:45;100616.93;;;22.14;39.49
73242;BME280;65659;49.234;-2.094;2023-07-20T09:29:58;100616.12;;;22.25;39.06
73242;BME280;65659;49.234;-2.094;2023-07-20T09:32:22;100618.59;;;22.00;38.62
73242;BME280;65659;49.234;-2.094;2023-07-20T09:34:53;100619.97;;;22.54;38.20
73242;BME280;65659;49.234;-2.094;2023-07-20T09:37:20;100620.14;;;22.46;37.99
73242;BME280;65659;49.234;-2.094;2023-07-20T09:39:43;100620.55;;;22.52;37.65
73242;BME280;65659;49.234;-2.094;2023-07-20T09:42:08;100617.81;;;22.56;37.45
73242;BME280;65659;49.234;-2.094;2023-07-20T09:44:31;100613.87;;;22.82;37.59
73242;BME280;65659;49.234;-2.094;2023-07-20T09:47:02;100611.77;;;22.83;37.57
73242;BME280;65659;49.234;-2.094;2023-07-20T09:49:22;100609.73;;;22.93;37.51
73242;BME280;65659;49.234;-2.094;2023-07-20T09:54:27;100610.54;;;23.30;37.45
73242;BME280;65659;49.234;-2.094;2023-07-20T09:56:58;100617.02;;;23.07;37.91
73242;BME280;65659;49.234;-2.094;2023-07-20T09:59:15;100615.60;;;23.08;37.93
73242;BME280;65659;49.234;-2.094;2023-07-20T10:01:40;100611.10;;;22.74;37.71
73242;BME280;65659;49.234;-2.094;2023-07-20T10:04:03;100610.10;;;22.96;37.83
73242;BME280;65659;49.234;-2.094;2023-07-20T10:06:27;100609.93;;;22.67;37.48
73242;BME280;65659;49.234;-2.094;2023-07-20T10:08:59;100608.79;;;22.57;36.64
73242;BME280;65659;49.234;-2.094;2023-07-20T10:11:24;100607.20;;;23.04;35.96
73242;BME280;65659;49.234;-2.094;2023-07-20T10:13:43;100605.30;;;23.25;35.81
73242;BME280;65659;49.234;-2.094;2023-07-20T10:16:18;100607.82;;;23.65;35.46
73242;BME280;65659;49.234;-2.094;2023-07-20T10:18:45;100608.95;;;23.23;35.41
73242;BME280;65659;49.234;-2.094;2023-07-20T10:21:01;100608.91;;;23.46;35.39
73242;BME280;65659;49.234;-2.094;2023-07-20T10:23:27;100605.49;;;23.63;35.44
73242;BME280;65659;49.234;-2.094;2023-07-20T10:26:03;100610.36;;;23.64;35.31
73242;BME280;65659;49.234;-2.094;2023-07-20T10:28:25;100609.37;;;24.04;35.26
73242;BME280;65659;49.234;-2.094;2023-07-20T10:30:54;100613.74;;;24.94;35.19
73242;BME280;65659;49.234;-2.094;2023-07-20T10:33:20;100614.25;;;24.43;35.59
73242;BME280;65659;49.234;-2.094;2023-07-20T10:36:04;100611.81;;;24.25;34.81
73242;BME280;65659;49.234;-2.094;2023-07-20T10:38:06;100615.01;;;24.15;34.81
73242;BME280;65659;49.234;-2.094;2023-07-20T10:43:02;100611.83;;;23.93;34.43
73242;BME280;65659;49.234;-2.094;2023-07-20T10:45:41;100614.67;;;23.84;34.56
73242;BME280;65659;49.234;-2.094;2023-07-20T10:47:47;100609.43;;;24.98;34.74
73242;BME280;65659;49.234;-2.094;2023-07-20T10:50:09;100607.10;;;23.60;35.40
73242;BME280;65659;49.234;-2.094;2023-07-20T10:52:40;100603.09;;;24.05;34.69
73242;BME280;65659;49.234;-2.094;2023-07-20T10:57:29;100603.68;;;24.46;33.76
73242;BME280;65659;49.234;-2.094;2023-07-20T10:59:49;100600.38;;;24.72;33.55
73242;BME280;65659;49.234;-2.094;2023-07-20T11:02:48;100593.99;;;25.49;33.53
73242;BME280;65659;49.234;-2.094;2023-07-20T11:07:10;100596.50;;;24.52;34.54
73242;BME280;65659;49.234;-2.094;2023-07-20T11:09:44;100593.36;;;24.83;34.41
73242;BME280;65659;49.234;-2.094;2023-07-20T11:14:32;100593.79;;;24.19;34.06
73242;BME280;65659;49.234;-2.094;2023-07-20T11:16:49;100592.58;;;24.50;33.84
73242;BME280;65659;49.234;-2.094;2023-07-20T11:19:18;100593.71;;;24.62;33.81
73242;BME280;65659;49.234;-2.094;2023-07-20T11:21:55;100592.67;;;24.43;32.76
73242;BME280;65659;49.234;-2.094;2023-07-20T11:24:15;100596.33;;;24.76;32.83
73242;BME280;65659;49.234;-2.094;2023-07-20T11:26:45;100590.58;;;24.64;32.95
73242;BME280;65659;49.234;-2.094;2023-07-20T11:29:08;100596.52;;;24.77;33.47
73242;BME280;65659;49.234;-2.094;2023-07-20T11:36:19;100590.63;;;24.42;34.36
73242;BME280;65659;49.234;-2.094;2023-07-20T11:38:50;100596.69;;;24.99;33.70
73242;BME280;65659;49.234;-2.094;2023-07-20T11:41:08;100590.05;;;24.77;33.62
73242;BME280;65659;49.234;-2.094;2023-07-20T11:43:44;100588.74;;;25.04;33.24
73242;BME280;65659;49.234;-2.094;2023-07-20T11:46:05;100587.91;;;25.41;33.44
73242;BME280;65659;49.234;-2.094;2023-07-20T11:48:25;100582.87;;;24.90;33.34
73242;BME280;65659;49.234;-2.094;2023-07-20T11:50:55;100584.61;;;25.14;33.16
73242;BME280;65659;49.234;-2.094;2023-07-20T11:53:27;100578.13;;;25.38;33.05
73242;BME280;65659;49.234;-2.094;2023-07-20T11:55:43;100577.38;;;25.03;32.94
73242;BME280;65659;49.234;-2.094;2023-07-20T11:58:14;100581.85;;;25.25;33.04
73242;BME280;65659;49.234;-2.094;2023-07-20T12:00:34;100578.91;;;25.64;32.91
73242;BME280;65659;49.234;-2.094;2023-07-20T12:03:04;100575.91;;;25.45;32.84
73242;BME280;65659;49.234;-2.094;2023-07-20T12:05:29;100581.05;;;25.83;32.58
73242;BME280;65659;49.234;-2.094;2023-07-20T12:07:54;100577.58;;;25.35;32.86
73242;BME280;65659;49.234;-2.094;2023-07-20T12:10:29;100571.79;;;25.68;33.04
73242;BME280;65659;49.234;-2.094;2023-07-20T12:12:44;100573.75;;;25.54;33.25
73242;BME280;65659;49.234;-2.094;2023-07-20T12:15:17;100571.28;;;26.10;33.18
73242;BME280;65659;49.234;-2.094;2023-07-20T12:17:32;100565.08;;;25.79;32.73
73242;BME280;65659;49.234;-2.094;2023-07-20T12:19:59;100570.67;;;25.17;32.84
73242;BME280;65659;49.234;-2.094;2023-07-20T12:22:22;100567.99;;;25.56;31.99
73242;BME280;65659;49.234;-2.094;2023-07-20T12:24:46;100568.04;;;25.71;31.60
73242;BME280;65659;49.234;-2.094;2023-07-20T12:27:16;100571.32;;;25.99;31.22
73242;BME280;65659;49.234;-2.094;2023-07-20T12:29:40;100566.32;;;26.92;31.09
73242;BME280;65659;49.234;-2.094;2023-07-20T12:32:06;100558.22;;;26.15;30.86
73242;BME280;65659;49.234;-2.094;2023-07-20T12:34:33;100559.08;;;26.16;30.58
73242;BME280;65659;49.234;-2.094;2023-07-20T12:42:00;100555.32;;;27.41;30.20
73242;BME280;65659;49.234;-2.094;2023-07-20T12:44:25;100556.55;;;27.31;29.37
73242;BME280;65659;49.234;-2.094;2023-07-20T12:46:55;100550.30;;;27.26;29.60
73242;BME280;65659;49.234;-2.094;2023-07-20T12:49:16;100553.26;;;26.96;29.66
73242;BME280;65659;49.234;-2.094;2023-07-20T12:51:36;100553.26;;;27.53;29.52
73242;BME280;65659;49.234;-2.094;2023-07-20T12:56:23;100554.69;;;27.59;29.10
73242;BME280;65659;49.234;-2.094;2023-07-20T13:01:22;100555.72;;;27.90;29.02
73242;BME280;65659;49.234;-2.094;2023-07-20T13:03:43;100555.08;;;27.71;28.96
73242;BME280;65659;49.234;-2.094;2023-07-20T13:06:10;100555.16;;;27.69;28.71
73242;BME280;65659;49.234;-2.094;2023-07-20T13:08:40;100553.24;;;27.57;28.56
73242;BME280;65659;49.234;-2.094;2023-07-20T13:10:55;100556.50;;;27.85;28.70
73242;BME280;65659;49.234;-2.094;2023-07-20T13:13:18;100551.30;;;27.10;29.09
73242;BME280;65659;49.234;-2.094;2023-07-20T13:15:46;100554.58;;;27.80;29.00